Time;durP1;ratioP1;P1;durP2;ratioP2;P2;SDS_P1;SDS_P2;PMS_P1;PMS_P2;Temp;Humidity;BMP_temperature;BMP_pressure;BME280_temperature;BME280_humidity;BME280_pressure;Samples;Min_cycle;Max_cycle;Signal;HPM_P1;HPM_P2
2021/04/17 00:02:22;;;;;;;16.77;6.70;;;3.40;99.90;;;;;;4835617;29;20042;-63
2021/04/17 00:04:49;;;;;;;14.98;6.63;;;3.50;99.90;;;;;;4836661;29;20042;-63
2021/04/17 00:07:16;;;;;;;19.05;6.68;;;3.40;99.90;;;;;;4842399;29;20060;-63
2021/04/17 00:09:44;;;;;;;16.50;6.55;;;3.50;99.90;;;;;;4831282;29;20517;-63
2021/04/17 00:12:17;;;;;;;16.05;6.18;;;3.30;99.90;;;;;;4831373;29;20094;-63
2021/04/17 00:14:44;;;;;;;16.00;6.88;;;3.40;99.90;;;;;;4840448;29;20504;-62
2021/04/17 00:17:14;;;;;;;14.50;6.18;;;3.30;99.90;;;;;;4825356;29;20062;-63
2021/04/17 00:19:43;;;;;;;15.18;6.45;;;3.30;99.90;;;;;;4835805;29;20561;-63
2021/04/17 00:22:10;;;;;;;18.35;7.75;;;3.20;99.90;;;;;;4846275;29;20041;-63
2021/04/17 00:24:36;;;;;;;18.42;7.15;;;3.30;99.90;;;;;;4838658;29;20497;-62
2021/04/17 00:27:03;;;;;;;19.40;7.25;;;3.20;99.90;;;;;;4830362;29;20052;-62
2021/04/17 00:29:32;;;;;;;19.88;7.93;;;3.00;99.90;;;;;;4828981;29;20046;-62
2021/04/17 00:32:00;;;;;;;16.85;7.30;;;3.00;99.90;;;;;;4839917;29;20046;-62
2021/04/17 00:34:27;;;;;;;20.23;7.78;;;3.00;99.90;;;;;;4833327;29;20042;-62
2021/04/17 00:36:54;;;;;;;22.02;8.15;;;3.10;99.90;;;;;;4841140;29;20050;-62
2021/04/17 00:39:22;;;;;;;20.00;6.82;;;3.10;99.90;;;;;;4842784;29;20050;-63
2021/04/17 00:41:48;;;;;;;17.55;8.07;;;3.10;99.90;;;;;;4842010;29;20041;-63
2021/04/17 00:44:15;;;;;;;17.52;6.93;;;3.10;99.90;;;;;;4843777;29;20076;-63
2021/04/17 00:46:42;;;;;;;16.25;6.68;;;3.10;99.90;;;;;;4860261;29;20049;-63
2021/04/17 00:49:09;;;;;;;18.00;7.43;;;3.10;99.90;;;;;;4860277;29;20046;-63
2021/04/17 00:51:36;;;;;;;19.23;7.53;;;3.00;99.90;;;;;;4824636;29;20568;-63
2021/04/17 00:54:05;;;;;;;14.93;6.50;;;3.00;99.90;;;;;;4832587;29;20404;-63
2021/04/17 00:56:32;;;;;;;18.50;7.47;;;3.00;99.90;;;;;;4845407;29;20137;-63
2021/04/17 00:58:59;;;;;;;15.23;6.63;;;2.90;99.90;;;;;;4850044;29;20054;-63
2021/04/17 01:01:25;;;;;;;15.90;7.05;;;3.00;99.90;;;;;;4850457;29;20050;-63
2021/04/17 01:03:59;;;;;;;19.20;7.18;;;2.90;99.90;;;;;;4870691;29;20589;-63
2021/04/17 01:06:29;;;;;;;16.88;6.90;;;2.80;99.90;;;;;;4854812;29;20524;-63
2021/04/17 01:08:55;;;;;;;21.13;7.93;;;2.90;99.90;;;;;;4859334;29;20101;-63
2021/04/17 01:11:37;;;;;;;21.05;8.73;;;2.90;99.90;;;;;;4857484;29;20046;-63
2021/04/17 01:14:04;;;;;;;22.77;8.23;;;2.90;99.90;;;;;;4860888;29;20056;-63
2021/04/17 01:16:32;;;;;;;18.95;7.38;;;2.90;99.90;;;;;;4839645;29;20049;-63
2021/04/17 01:19:01;;;;;;;18.25;7.15;;;2.80;99.90;;;;;;4857733;29;20064;-63
2021/04/17 01:21:29;;;;;;;15.75;7.28;;;2.80;99.90;;;;;;4853972;29;20041;-63
2021/04/17 01:24:02;;;;;;;19.48;7.38;;;2.70;99.90;;;;;;4852671;29;20053;-63
2021/04/17 01:26:30;;;;;;;16.52;7.07;;;2.60;99.90;;;;;;4856860;29;20060;-63
2021/04/17 01:28:57;;;;;;;18.10;6.97;;;2.70;99.90;;;;;;4847934;29;20089;-63
2021/04/17 01:31:30;;;;;;;16.40;6.80;;;2.70;99.90;;;;;;4849854;29;20056;-63
2021/04/17 01:33:58;;;;;;;17.50;7.13;;;2.70;99.90;;;;;;4858501;29;20554;-63
2021/04/17 01:36:28;;;;;;;19.90;6.93;;;2.60;99.90;;;;;;4848799;29;20053;-63
2021/04/17 01:39:00;;;;;;;16.20;7.63;;;2.60;99.90;;;;;;4860103;29;20046;-63
2021/04/17 01:41:34;;;;;;;13.93;6.65;;;2.70;99.90;;;;;;4847123;29;20041;-63
2021/04/17 01:44:10;;;;;;;17.45;7.20;;;2.60;99.90;;;;;;4868793;29;20059;-63
2021/04/17 01:46:46;;;;;;;19.33;6.78;;;2.50;99.90;;;;;;4852333;29;20041;-62
2021/04/17 01:49:16;;;;;;;22.23;7.47;;;2.50;99.90;;;;;;4843427;29;20380;-63
2021/04/17 01:51:46;;;;;;;16.10;7.20;;;2.60;99.90;;;;;;4840436;29;20053;-63
2021/04/17 01:54:20;;;;;;;16.25;6.97;;;2.60;99.90;;;;;;4837230;29;20041;-62
2021/04/17 01:56:49;;;;;;;16.23;6.35;;;2.50;99.90;;;;;;4851422;29;20405;-62
2021/04/17 01:59:18;;;;;;;16.02;7.10;;;2.60;99.90;;;;;;4858510;29;20102;-62
2021/04/17 02:01:45;;;;;;;17.70;7.22;;;2.40;99.90;;;;;;4846704;29;20520;-62
2021/04/17 02:04:12;;;;;;;17.63;7.35;;;2.40;99.90;;;;;;4851448;29;20042;-63
2021/04/17 02:06:39;;;;;;;16.85;6.60;;;2.40;99.90;;;;;;4836578;29;20065;-63
2021/04/17 02:09:06;;;;;;;17.63;7.15;;;2.40;99.90;;;;;;4848073;29;20154;-63
2021/04/17 02:11:32;;;;;;;16.02;7.07;;;2.20;99.90;;;;;;4840302;29;20620;-62
2021/04/17 02:14:00;;;;;;;15.93;7.00;;;2.20;99.90;;;;;;4864244;29;20045;-62
2021/04/17 02:16:54;;;;;;;16.90;6.47;;;2.30;99.90;;;;;;4839115;29;20509;-62
2021/04/17 02:19:31;;;;;;;17.33;7.00;;;2.30;99.90;;;;;;4849494;29;20107;-64
2021/04/17 02:21:59;;;;;;;16.33;6.80;;;2.30;99.90;;;;;;4849844;29;20099;-64
2021/04/17 02:24:27;;;;;;;19.33;7.03;;;2.30;99.90;;;;;;4845262;29;20049;-64
2021/04/17 02:26:54;;;;;;;18.02;6.78;;;2.40;99.90;;;;;;4848962;29;20054;-64
2021/04/17 02:29:21;;;;;;;18.17;6.53;;;2.40;99.90;;;;;;4863103;29;20057;-64
2021/04/17 02:31:48;;;;;;;16.13;7.63;;;2.40;99.90;;;;;;4867130;29;20041;-63
2021/04/17 02:34:16;;;;;;;15.90;7.30;;;2.40;99.90;;;;;;4852636;29;20042;-63
2021/04/17 02:36:43;;;;;;;16.70;6.97;;;2.50;99.90;;;;;;4831304;29;20075;-64
2021/04/17 02:39:09;;;;;;;16.40;7.32;;;2.50;99.90;;;;;;4841201;29;20061;-64
2021/04/17 02:41:36;;;;;;;19.50;7.20;;;2.30;99.90;;;;;;4858013;29;20046;-64
2021/04/17 02:44:03;;;;;;;19.27;7.10;;;2.40;99.90;;;;;;4860395;29;20050;-63
2021/04/17 02:46:30;;;;;;;18.98;7.40;;;2.40;99.90;;;;;;4856905;29;20041;-63
2021/04/17 02:48:57;;;;;;;17.50;6.70;;;2.30;99.90;;;;;;4850341;29;20049;-63
2021/04/17 02:51:24;;;;;;;16.98;7.50;;;2.40;99.90;;;;;;4856593;29;20050;-63
2021/04/17 02:53:52;;;;;;;19.15;8.20;;;2.40;99.90;;;;;;4840900;29;20581;-63
2021/04/17 02:56:19;;;;;;;20.08;9.00;;;2.40;99.90;;;;;;4854682;29;20060;-63
2021/04/17 02:58:46;;;;;;;17.42;8.95;;;2.30;99.90;;;;;;4874100;29;20053;-63
2021/04/17 03:01:13;;;;;;;24.95;8.93;;;2.20;99.90;;;;;;4856119;29;20391;-64
2021/04/17 03:03:40;;;;;;;18.67;8.10;;;2.20;99.90;;;;;;4849078;29;20497;-63
2021/04/17 03:06:06;;;;;;;22.10;8.15;;;2.10;99.90;;;;;;4853416;29;20050;-63
2021/04/17 03:08:33;;;;;;;21.40;8.65;;;2.10;99.90;;;;;;4852672;29;20053;-63
2021/04/17 03:11:00;;;;;;;19.55;8.30;;;2.10;99.90;;;;;;4855836;29;20045;-64
2021/04/17 03:13:27;;;;;;;18.73;7.75;;;2.10;99.90;;;;;;4857087;29;20057;-64
2021/04/17 03:15:54;;;;;;;21.00;8.70;;;2.20;99.90;;;;;;4831122;29;20059;-63
2021/04/17 03:18:22;;;;;;;22.75;8.73;;;2.20;99.90;;;;;;4840966;29;20822;-63
2021/04/17 03:20:49;;;;;;;14.02;7.35;;;2.10;99.90;;;;;;4842544;29;20049;-63
2021/04/17 03:23:15;;;;;;;17.02;7.35;;;2.20;99.90;;;;;;4846086;29;20048;-64
2021/04/17 03:25:42;;;;;;;19.05;8.38;;;2.20;99.90;;;;;;4849661;29;20053;-64
2021/04/17 03:28:09;;;;;;;18.48;7.05;;;2.00;99.90;;;;;;4848113;29;20060;-63
2021/04/17 03:30:35;;;;;;;20.10;7.53;;;2.10;99.90;;;;;;4849460;29;20052;-63
2021/04/17 03:33:03;;;;;;;22.33;8.07;;;2.00;99.90;;;;;;4846209;29;20049;-64
2021/04/17 03:35:31;;;;;;;22.13;8.95;;;2.00;99.90;;;;;;4820982;29;20054;-63
2021/04/17 03:37:58;;;;;;;24.65;8.20;;;2.10;99.90;;;;;;4846074;29;20061;-64
2021/04/17 03:40:26;;;;;;;23.00;8.15;;;2.00;99.90;;;;;;4851270;29;20041;-63
2021/04/17 03:42:53;;;;;;;21.80;9.07;;;2.10;99.90;;;;;;4840404;29;20045;-63
2021/04/17 03:45:19;;;;;;;18.40;7.60;;;2.00;99.90;;;;;;4837943;29;20043;-63
2021/04/17 03:47:46;;;;;;;25.38;7.75;;;2.00;99.90;;;;;;4850638;29;20473;-63
2021/04/17 03:50:14;;;;;;;19.33;7.30;;;1.90;99.90;;;;;;4857588;29;20045;-63
2021/04/17 03:52:42;;;;;;;19.55;7.90;;;2.00;99.90;;;;;;4840367;29;20660;-63
2021/04/17 03:55:12;;;;;;;21.98;8.77;;;2.00;99.90;;;;;;4853485;29;22160;-64
2021/04/17 03:57:39;;;;;;;24.75;8.50;;;2.00;99.90;;;;;;4851188;29;20045;-64
2021/04/17 04:00:08;;;;;;;20.80;8.82;;;2.00;99.90;;;;;;4857915;29;20045;-64
2021/04/17 04:02:35;;;;;;;23.80;9.43;;;2.00;99.90;;;;;;4854227;29;20053;-64
2021/04/17 04:05:02;;;;;;;23.63;9.25;;;2.10;99.90;;;;;;4846226;29;20042;-64
2021/04/17 04:07:29;;;;;;;20.52;8.65;;;2.10;99.90;;;;;;4843497;29;20504;-64
2021/04/17 04:09:55;;;;;;;22.10;8.38;;;2.20;99.90;;;;;;4839468;29;20053;-63
2021/04/17 04:12:22;;;;;;;20.25;8.13;;;2.20;99.90;;;;;;4842848;29;20053;-63
2021/04/17 04:14:48;;;;;;;19.25;7.70;;;2.20;99.90;;;;;;4832309;29;20090;-64
2021/04/17 04:17:15;;;;;;;23.65;8.38;;;2.20;99.90;;;;;;4853277;29;20045;-63
2021/04/17 04:19:42;;;;;;;19.85;7.60;;;2.30;99.90;;;;;;4838605;29;20517;-64
2021/04/17 04:22:08;;;;;;;24.02;9.68;;;2.30;99.90;;;;;;4844622;29;20059;-64
2021/04/17 04:24:35;;;;;;;23.17;8.57;;;2.40;99.90;;;;;;4829068;29;20408;-64
2021/04/17 04:27:02;;;;;;;25.40;8.40;;;2.40;99.90;;;;;;4852260;29;20042;-63
2021/04/17 04:29:28;;;;;;;21.92;8.95;;;2.30;99.90;;;;;;4846284;29;20034;-64
2021/04/17 04:31:55;;;;;;;21.13;8.32;;;2.30;99.90;;;;;;4862203;29;20041;-63
2021/04/17 04:34:22;;;;;;;20.58;7.97;;;2.30;99.90;;;;;;4859693;29;20128;-63
2021/04/17 04:36:49;;;;;;;26.15;9.93;;;2.30;99.90;;;;;;4858713;29;20050;-63
2021/04/17 04:39:15;;;;;;;26.67;10.68;;;2.40;99.90;;;;;;4859829;29;20110;-63
2021/04/17 04:41:42;;;;;;;21.65;9.85;;;2.50;99.90;;;;;;4857386;29;20510;-63
2021/04/17 04:44:08;;;;;;;27.67;11.23;;;2.60;99.90;;;;;;4851565;29;20116;-64
2021/04/17 04:46:35;;;;;;;30.45;10.98;;;2.70;99.90;;;;;;4842876;29;20045;-64
2021/04/17 04:49:02;;;;;;;28.20;11.88;;;2.70;99.90;;;;;;4869736;29;20077;-64
2021/04/17 04:51:30;;;;;;;24.42;10.85;;;2.60;99.90;;;;;;4858400;29;20132;-64
2021/04/17 04:53:58;;;;;;;20.80;8.63;;;2.80;99.90;;;;;;4860195;29;20102;-64
2021/04/17 04:56:25;;;;;;;26.55;10.30;;;2.90;99.90;;;;;;4873102;29;20041;-64
2021/04/17 04:58:52;;;;;;;22.45;9.45;;;3.00;99.90;;;;;;4836579;29;20113;-64
2021/04/17 05:01:19;;;;;;;23.15;10.27;;;2.90;99.90;;;;;;4861445;29;20053;-64
2021/04/17 05:03:46;;;;;;;23.58;9.82;;;3.00;99.90;;;;;;4861676;29;20683;-64
2021/04/17 05:06:12;;;;;;;25.50;10.57;;;3.10;99.90;;;;;;4856467;29;20511;-64
2021/04/17 05:08:39;;;;;;;23.85;9.93;;;3.10;99.90;;;;;;4838326;29;20049;-64
2021/04/17 05:11:05;;;;;;;24.35;10.18;;;3.20;99.90;;;;;;4855311;29;20070;-64
2021/04/17 05:13:32;;;;;;;25.38;9.15;;;3.30;99.90;;;;;;4840697;29;20053;-64
2021/04/17 05:15:59;;;;;;;22.02;9.05;;;3.30;99.90;;;;;;4840438;29;20049;-64
2021/04/17 05:18:26;;;;;;;26.08;9.60;;;3.40;99.90;;;;;;4855665;29;20052;-64
2021/04/17 05:20:52;;;;;;;24.23;9.68;;;3.50;99.90;;;;;;4854149;29;20478;-64
2021/04/17 05:23:19;;;;;;;23.33;9.70;;;3.60;99.90;;;;;;4835596;29;20049;-63
2021/04/17 05:25:45;;;;;;;23.77;9.80;;;3.70;99.90;;;;;;4840705;29;20037;-63
2021/04/17 05:28:12;;;;;;;28.30;11.60;;;3.80;99.90;;;;;;4846853;29;20049;-63
2021/04/17 05:30:39;;;;;;;30.45;9.60;;;3.80;99.90;;;;;;4853385;29;20056;-64
2021/04/17 05:33:05;;;;;;;25.77;10.68;;;3.90;99.90;;;;;;4850473;29;20059;-64
2021/04/17 05:35:32;;;;;;;29.83;11.38;;;4.00;99.90;;;;;;4838642;29;20054;-64
2021/04/17 05:37:59;;;;;;;25.27;9.50;;;4.10;99.90;;;;;;4857865;29;20418;-64
2021/04/17 05:40:26;;;;;;;22.77;10.30;;;4.20;99.90;;;;;;4856395;29;20049;-64
2021/04/17 05:42:52;;;;;;;28.42;10.00;;;4.30;99.90;;;;;;4856981;29;20056;-64
2021/04/17 05:45:19;;;;;;;23.23;9.95;;;4.40;99.90;;;;;;4834879;29;20512;-64
2021/04/17 05:47:46;;;;;;;28.35;10.63;;;4.60;99.90;;;;;;4839731;29;20129;-64
2021/04/17 05:50:13;;;;;;;28.05;11.00;;;4.60;99.90;;;;;;4854639;29;20091;-64
2021/04/17 05:52:39;;;;;;;33.10;13.23;;;4.70;99.90;;;;;;4856762;29;20393;-64
2021/04/17 05:55:07;;;;;;;43.65;17.15;;;4.70;99.90;;;;;;4855174;29;20049;-64
2021/04/17 05:57:34;;;;;;;33.55;13.32;;;4.80;99.90;;;;;;4857069;29;20045;-63
2021/04/17 06:00:00;;;;;;;22.40;10.50;;;4.90;99.90;;;;;;4852501;29;20041;-63
2021/04/17 06:02:27;;;;;;;27.52;9.60;;;5.00;99.90;;;;;;4851711;29;20113;-64
2021/04/17 06:04:53;;;;;;;23.45;9.52;;;5.00;99.90;;;;;;4850163;29;20049;-64
2021/04/17 06:07:20;;;;;;;25.45;10.25;;;5.20;99.90;;;;;;4836587;29;20046;-64
2021/04/17 06:09:46;;;;;;;23.65;9.20;;;5.30;99.90;;;;;;4838713;29;20053;-64
2021/04/17 06:12:13;;;;;;;24.33;9.88;;;5.30;99.90;;;;;;4846712;29;20045;-64
2021/04/17 06:14:40;;;;;;;24.25;11.23;;;5.30;99.90;;;;;;4850505;29;22008;-64
2021/04/17 06:17:07;;;;;;;22.85;9.55;;;5.40;99.90;;;;;;4845599;29;20314;-64
2021/04/17 06:19:34;;;;;;;23.05;8.95;;;5.50;99.90;;;;;;4835849;29;20144;-64
2021/04/17 06:22:00;;;;;;;23.38;8.98;;;5.60;99.90;;;;;;4837371;29;20076;-64
2021/04/17 06:24:27;;;;;;;23.63;9.95;;;5.80;99.90;;;;;;4837948;29;20042;-64
2021/04/17 06:26:53;;;;;;;25.45;9.95;;;5.80;99.90;;;;;;4854391;29;20053;-64
2021/04/17 06:29:20;;;;;;;22.75;8.75;;;5.90;99.90;;;;;;4814648;29;20038;-64
2021/04/17 06:31:47;;;;;;;19.45;8.32;;;6.00;99.90;;;;;;4831141;29;20054;-64
2021/04/17 06:34:13;;;;;;;21.95;9.20;;;6.10;99.90;;;;;;4846429;29;20113;-64
2021/04/17 06:36:40;;;;;;;19.88;7.53;;;6.20;99.90;;;;;;4848379;29;20508;-64
2021/04/17 06:39:07;;;;;;;22.33;8.93;;;6.20;99.90;;;;;;4849431;29;20110;-64
2021/04/17 06:41:36;;;;;;;22.85;9.07;;;6.30;99.90;;;;;;4846805;29;20061;-62
2021/04/17 06:44:05;;;;;;;21.38;8.45;;;6.40;99.90;;;;;;4852555;29;20046;-61
2021/04/17 06:46:33;;;;;;;25.95;9.13;;;6.40;99.90;;;;;;4847427;29;20042;-62
2021/04/17 06:49:06;;;;;;;21.52;9.05;;;6.50;99.90;;;;;;4854884;29;20052;-62
2021/04/17 06:51:35;;;;;;;20.38;8.00;;;6.50;99.90;;;;;;4851874;29;20524;-62
2021/04/17 06:54:04;;;;;;;21.45;7.70;;;6.60;99.90;;;;;;4846089;29;20045;-62
2021/04/17 06:56:31;;;;;;;18.75;8.05;;;6.70;99.90;;;;;;4842931;29;20621;-62
2021/04/17 06:58:59;;;;;;;19.65;7.85;;;6.80;99.90;;;;;;4851934;29;20640;-62
2021/04/17 07:01:26;;;;;;;23.60;9.13;;;6.90;99.90;;;;;;4846758;29;20426;-61
2021/04/17 07:03:53;;;;;;;19.20;7.70;;;6.90;99.90;;;;;;4844479;29;20038;-61
2021/04/17 07:06:19;;;;;;;19.20;7.93;;;7.00;99.90;;;;;;4844405;29;20045;-61
2021/04/17 07:08:46;;;;;;;18.55;7.53;;;7.10;99.90;;;;;;4851844;29;20053;-61
2021/04/17 07:11:12;;;;;;;18.52;7.40;;;7.10;99.90;;;;;;4838628;29;20045;-61
2021/04/17 07:13:58;;;;;;;19.35;7.95;;;7.20;99.90;;;;;;4848037;29;20061;-61
2021/04/17 07:16:25;;;;;;;21.75;7.88;;;7.40;99.90;;;;;;4850602;29;20480;-62
2021/04/17 07:18:52;;;;;;;20.35;8.10;;;7.40;99.90;;;;;;4836318;29;20034;-62
2021/04/17 07:21:18;;;;;;;21.42;8.65;;;7.50;99.30;;;;;;4850136;29;20053;-61
2021/04/17 07:23:47;;;;;;;20.15;8.15;;;7.40;98.20;;;;;;4848185;29;20046;-61
2021/04/17 07:26:28;;;;;;;28.90;12.20;;;7.40;98.00;;;;;;4832509;29;20046;-61
2021/04/17 07:28:54;;;;;;;20.52;8.13;;;7.50;98.10;;;;;;4843847;29;20054;-61
2021/04/17 07:31:22;;;;;;;18.83;7.35;;;7.60;97.90;;;;;;4853416;29;20056;-61
2021/04/17 07:33:49;;;;;;;19.17;7.90;;;7.70;98.20;;;;;;4837754;29;20065;-61
2021/04/17 07:36:16;;;;;;;23.05;8.27;;;7.70;97.30;;;;;;4824008;29;20498;-61
2021/04/17 07:38:47;;;;;;;18.05;7.55;;;7.70;96.90;;;;;;4838278;29;20049;-61
2021/04/17 07:41:15;;;;;;;16.95;7.75;;;7.70;97.00;;;;;;4847168;29;20064;-61
2021/04/17 07:43:45;;;;;;;16.23;6.82;;;7.70;96.20;;;;;;4836212;29;20477;-61
2021/04/17 07:46:12;;;;;;;16.40;6.78;;;7.80;96.00;;;;;;4850271;29;20056;-61
2021/04/17 07:48:39;;;;;;;18.00;7.18;;;7.90;95.50;;;;;;4855900;29;20049;-61
2021/04/17 07:51:08;;;;;;;18.02;6.93;;;7.90;95.00;;;;;;4834787;29;20132;-62
2021/04/17 07:53:43;;;;;;;17.80;6.38;;;8.10;95.00;;;;;;4851089;29;20060;-61
2021/04/17 07:56:35;;;;;;;18.75;6.68;;;8.10;94.90;;;;;;4851421;29;20038;-61
2021/04/17 07:59:05;;;;;;;19.08;7.30;;;8.30;94.30;;;;;;4850343;29;20045;-62
2021/04/17 08:01:34;;;;;;;17.05;7.35;;;8.30;94.00;;;;;;4853406;29;20492;-62
2021/04/17 08:04:02;;;;;;;15.38;6.60;;;8.30;93.60;;;;;;4859269;29;20385;-62
2021/04/17 08:06:30;;;;;;;14.90;6.60;;;8.40;92.80;;;;;;4853211;29;20486;-62
2021/04/17 08:08:59;;;;;;;15.55;6.47;;;8.40;92.90;;;;;;4821895;29;20572;-62
2021/04/17 08:11:29;;;;;;;18.20;6.55;;;8.50;92.60;;;;;;4852985;29;20056;-61
2021/04/17 08:13:57;;;;;;;13.98;5.95;;;8.60;91.80;;;;;;4849674;29;20064;-62
2021/04/17 08:16:24;;;;;;;12.98;5.43;;;8.70;92.00;;;;;;4860195;29;20047;-62
2021/04/17 08:18:51;;;;;;;13.98;6.38;;;8.80;92.20;;;;;;4850205;29;20050;-61
2021/04/17 08:21:20;;;;;;;14.23;5.60;;;8.90;91.50;;;;;;4853291;29;20053;-61
2021/04/17 08:23:50;;;;;;;18.05;6.57;;;9.00;91.40;;;;;;4853774;29;20056;-61
2021/04/17 08:26:18;;;;;;;16.20;7.25;;;9.10;90.60;;;;;;4859810;29;20059;-61
2021/04/17 08:28:48;;;;;;;16.80;7.05;;;9.10;90.30;;;;;;4861986;29;20428;-61
2021/04/17 08:31:33;;;;;;;16.10;6.47;;;9.10;90.30;;;;;;4854090;29;20390;-62
2021/04/17 08:34:11;;;;;;;16.70;6.45;;;9.00;90.20;;;;;;4850846;29;20057;-61
2021/04/17 08:36:49;;;;;;;14.05;5.55;;;9.10;90.90;;;;;;4846826;29;20053;-61
2021/04/17 08:39:34;;;;;;;15.60;6.53;;;9.10;90.40;;;;;;4837892;29;20068;-61
2021/04/17 08:42:05;;;;;;;13.27;5.63;;;9.20;89.40;;;;;;4839767;29;20095;-61
2021/04/17 08:44:34;;;;;;;13.68;5.82;;;9.20;89.10;;;;;;4847101;29;20108;-61
2021/04/17 08:47:04;;;;;;;14.00;5.78;;;9.20;87.50;;;;;;4842230;29;20042;-61
2021/04/17 08:49:34;;;;;;;15.23;5.63;;;9.20;88.70;;;;;;4835428;29;20046;-61
2021/04/17 08:52:09;;;;;;;14.30;6.13;;;9.30;89.70;;;;;;4851349;29;20520;-62
2021/04/17 08:54:39;;;;;;;13.18;5.65;;;9.40;88.70;;;;;;4848187;29;20064;-65
2021/04/17 08:57:17;;;;;;;13.13;5.75;;;9.50;89.30;;;;;;4851369;29;20489;-65
2021/04/17 08:59:53;;;;;;;13.45;5.53;;;9.60;89.30;;;;;;4848776;29;20045;-64
2021/04/17 09:02:20;;;;;;;14.32;6.22;;;9.80;87.40;;;;;;4853874;29;20042;-65
2021/04/17 09:05:14;;;;;;;15.15;6.30;;;9.90;87.30;;;;;;4846538;29;20039;-65
2021/04/17 09:07:44;;;;;;;13.82;5.60;;;10.10;87.10;;;;;;4825657;29;20061;-69
2021/04/17 09:10:23;;;;;;;12.60;5.53;;;10.20;86.40;;;;;;4834802;29;20116;-70
2021/04/17 09:13:09;;;;;;;12.40;5.28;;;10.40;84.10;;;;;;4846403;29;20099;-69
2021/04/17 09:15:51;;;;;;;14.98;6.65;;;10.50;85.60;;;;;;4845566;29;20767;-71
2021/04/17 09:18:33;;;;;;;16.33;6.47;;;10.60;82.50;;;;;;4839771;29;20049;-64
2021/04/17 09:21:04;;;;;;;15.45;6.28;;;10.60;81.20;;;;;;4856291;29;20045;-64
2021/04/17 09:23:49;;;;;;;16.38;7.15;;;10.50;81.30;;;;;;4838926;29;20518;-68
2021/04/17 09:26:31;;;;;;;13.80;6.03;;;10.60;81.50;;;;;;4842456;29;20049;-68
2021/04/17 09:29:02;;;;;;;15.17;6.37;;;10.60;79.60;;;;;;4840256;29;20058;-67
2021/04/17 09:31:37;;;;;;;15.07;6.25;;;10.40;80.30;;;;;;4838532;29;20046;-66
2021/04/17 09:34:16;;;;;;;12.40;6.03;;;10.30;78.80;;;;;;4827719;29;20057;-67
2021/04/17 09:36:43;;;;;;;12.90;5.80;;;10.40;80.00;;;;;;4836656;29;20125;-67
2021/04/17 09:39:31;;;;;;;13.57;5.82;;;10.50;78.40;;;;;;4832526;29;20071;-67
2021/04/17 09:42:01;;;;;;;14.85;6.18;;;10.50;79.10;;;;;;4844226;29;20046;-68
2021/04/17 09:44:42;;;;;;;11.18;5.35;;;10.60;79.00;;;;;;4846555;29;20125;-68
2021/04/17 09:47:11;;;;;;;11.63;5.57;;;10.70;79.70;;;;;;4834344;29;20054;-67
2021/04/17 09:49:44;;;;;;;13.75;5.82;;;10.90;78.90;;;;;;4847272;29;20140;-64
2021/04/17 09:52:16;;;;;;;13.63;5.90;;;11.00;77.40;;;;;;4844273;29;20050;-64
2021/04/17 09:54:44;;;;;;;13.70;5.85;;;11.20;78.50;;;;;;4855884;29;20054;-64
2021/04/17 09:57:12;;;;;;;15.15;6.90;;;11.30;78.30;;;;;;4833772;29;20072;-65
2021/04/17 09:59:55;;;;;;;12.90;5.82;;;11.30;75.40;;;;;;4843014;29;20038;-67
2021/04/17 10:02:23;;;;;;;12.27;5.75;;;11.50;76.50;;;;;;4833584;29;20061;-68
2021/04/17 10:05:01;;;;;;;16.38;6.80;;;11.40;73.40;;;;;;4834175;29;20045;-65
2021/04/17 10:07:43;;;;;;;17.20;7.03;;;11.30;74.00;;;;;;4834185;29;20064;-65
2021/04/17 10:10:11;;;;;;;14.13;6.00;;;11.10;74.90;;;;;;4849326;29;20053;-64
2021/04/17 10:12:50;;;;;;;14.23;6.72;;;11.20;75.50;;;;;;4838811;29;20065;-64
2021/04/17 10:15:30;;;;;;;17.05;7.22;;;11.10;74.40;;;;;;4842337;29;20681;-64
2021/04/17 10:17:58;;;;;;;16.60;6.35;;;11.10;74.50;;;;;;4857973;29;20053;-64
2021/04/17 10:20:26;;;;;;;12.88;5.88;;;11.20;76.10;;;;;;4837585;29;20442;-65
2021/04/17 10:22:58;;;;;;;14.02;5.93;;;11.10;74.40;;;;;;4850685;29;20084;-64
2021/04/17 10:25:42;;;;;;;16.88;7.40;;;11.10;75.60;;;;;;4838542;29;20054;-64
2021/04/17 10:28:10;;;;;;;14.05;5.55;;;11.10;75.30;;;;;;4825438;29;20145;-64
2021/04/17 10:30:37;;;;;;;14.10;6.40;;;11.00;75.80;;;;;;4828945;29;20057;-64
2021/04/17 10:33:24;;;;;;;15.30;6.57;;;10.80;74.80;;;;;;4837360;29;20052;-64
2021/04/17 10:35:53;;;;;;;16.65;6.35;;;10.80;76.40;;;;;;4849515;29;20054;-65
2021/04/17 10:38:26;;;;;;;16.90;6.95;;;10.70;75.40;;;;;;4833012;29;20038;-65
2021/04/17 10:40:55;;;;;;;14.63;6.07;;;10.80;76.40;;;;;;4846154;29;20049;-65
2021/04/17 10:43:23;;;;;;;13.93;6.50;;;10.90;76.90;;;;;;4850486;29;20056;-65
2021/04/17 10:45:55;;;;;;;15.52;7.07;;;10.90;76.00;;;;;;4852853;29;20041;-65
2021/04/17 10:48:25;;;;;;;17.55;7.22;;;11.10;76.20;;;;;;4848628;29;20126;-64
2021/04/17 10:51:04;;;;;;;13.95;6.43;;;11.10;74.90;;;;;;4849301;29;20057;-64
2021/04/17 10:53:36;;;;;;;14.93;7.10;;;11.10;75.10;;;;;;4854718;29;20053;-65
2021/04/17 10:56:14;;;;;;;14.10;6.88;;;11.10;74.70;;;;;;4852548;29;20541;-65
2021/04/17 10:58:42;;;;;;;13.20;6.38;;;11.10;76.40;;;;;;4857649;29;20041;-64
2021/04/17 11:01:14;;;;;;;13.25;6.32;;;11.10;75.80;;;;;;4851300;29;20069;-65
2021/04/17 11:03:49;;;;;;;15.67;6.50;;;11.20;76.00;;;;;;4843416;29;20045;-65
2021/04/17 11:06:27;;;;;;;14.93;6.63;;;11.10;74.30;;;;;;4844029;29;20273;-65
2021/04/17 11:09:18;;;;;;;14.18;6.40;;;11.00;75.10;;;;;;4853400;29;20065;-64
2021/04/17 11:11:53;;;;;;;13.40;6.10;;;11.00;75.70;;;;;;4846470;29;20105;-64
2021/04/17 11:14:21;;;;;;;14.60;5.65;;;11.00;77.10;;;;;;4847968;29;20053;-65
2021/04/17 11:16:51;;;;;;;12.73;5.57;;;11.00;75.60;;;;;;4836198;29;20513;-70
2021/04/17 11:19:24;;;;;;;14.10;6.18;;;11.00;75.60;;;;;;4851399;29;20049;-69
2021/04/17 11:22:15;;;;;;;17.20;7.68;;;11.00;75.00;;;;;;4836307;29;20495;-69
2021/04/17 11:25:00;;;;;;;15.55;6.70;;;10.70;75.20;;;;;;4841602;29;20053;-69
2021/04/17 11:27:27;;;;;;;14.73;5.97;;;10.80;75.60;;;;;;4847241;29;20132;-70
2021/04/17 11:29:53;;;;;;;16.30;7.30;;;10.90;76.60;;;;;;4836834;29;20439;-69
2021/04/17 11:32:21;;;;;;;13.35;6.32;;;10.90;76.00;;;;;;4841652;29;20064;-70
2021/04/17 11:34:50;;;;;;;14.93;6.50;;;10.90;75.80;;;;;;4828892;29;20068;-70
2021/04/17 11:37:18;;;;;;;13.80;6.65;;;11.00;75.70;;;;;;4861458;29;20403;-70
2021/04/17 11:39:45;;;;;;;13.52;6.15;;;11.00;76.20;;;;;;4844944;29;20102;-69
2021/04/17 11:42:17;;;;;;;14.35;6.13;;;11.00;75.10;;;;;;4830899;29;20157;-70
2021/04/17 11:44:44;;;;;;;15.27;7.18;;;11.00;75.30;;;;;;4855317;29;20045;-71
2021/04/17 11:47:11;;;;;;;13.98;6.80;;;11.10;76.10;;;;;;4838332;29;20053;-72
2021/04/17 11:49:38;;;;;;;14.45;6.07;;;11.10;75.00;;;;;;4844311;29;20042;-68
2021/04/17 11:52:04;;;;;;;16.63;7.05;;;11.00;75.10;;;;;;4835158;29;20085;-68
2021/04/17 11:54:31;;;;;;;14.00;6.55;;;11.00;75.60;;;;;;4844879;29;20414;-68
2021/04/17 11:56:58;;;;;;;15.75;7.03;;;11.00;75.10;;;;;;4832395;29;21559;-64
2021/04/17 11:59:25;;;;;;;14.73;6.90;;;11.10;75.30;;;;;;4853778;29;20056;-64
2021/04/17 12:01:51;;;;;;;17.67;7.13;;;11.10;76.00;;;;;;4849826;29;20038;-64
2021/04/17 12:04:18;;;;;;;15.55;7.45;;;11.00;76.50;;;;;;4839806;29;20438;-64
2021/04/17 12:06:50;;;;;;;15.45;7.30;;;11.10;75.90;;;;;;4854378;29;20583;-64
2021/04/17 12:09:17;;;;;;;18.73;7.93;;;11.20;75.80;;;;;;4838896;29;20192;-64
2021/04/17 12:11:46;;;;;;;15.65;7.43;;;11.10;75.80;;;;;;4850541;29;20045;-64
2021/04/17 12:14:13;;;;;;;12.23;6.22;;;11.10;76.10;;;;;;4851431;29;20065;-70
2021/04/17 12:16:40;;;;;;;13.38;7.15;;;11.00;75.90;;;;;;4852246;29;20053;-65
2021/04/17 12:19:07;;;;;;;17.08;7.78;;;10.90;76.60;;;;;;4820960;29;20061;-65
2021/04/17 12:21:33;;;;;;;14.23;6.88;;;10.90;76.80;;;;;;4830764;29;20490;-66
2021/04/17 12:24:00;;;;;;;16.23;7.00;;;11.00;75.50;;;;;;4859385;29;20045;-65
2021/04/17 12:26:26;;;;;;;24.05;7.65;;;11.00;75.10;;;;;;4837676;29;20053;-65
2021/04/17 12:28:53;;;;;;;17.02;8.10;;;11.10;75.30;;;;;;4846915;29;20428;-65
2021/04/17 12:31:20;;;;;;;14.95;7.43;;;11.10;75.90;;;;;;4834350;29;20045;-65
2021/04/17 12:33:47;;;;;;;13.70;6.32;;;11.20;75.80;;;;;;4833926;29;20073;-66
2021/04/17 12:36:13;;;;;;;16.80;7.93;;;11.20;76.30;;;;;;4828396;29;20060;-68
2021/04/17 12:38:40;;;;;;;17.05;7.05;;;11.10;75.40;;;;;;4838621;29;20042;-65
2021/04/17 12:41:07;;;;;;;15.65;6.93;;;11.10;75.20;;;;;;4830995;29;20050;-65
2021/04/17 12:43:36;;;;;;;15.38;7.15;;;11.20;75.10;;;;;;4833723;29;20052;-65
2021/04/17 12:46:04;;;;;;;15.45;7.32;;;11.30;75.10;;;;;;4843808;29;20049;-65
2021/04/17 12:48:31;;;;;;;15.32;7.00;;;11.30;75.10;;;;;;4837966;29;20060;-65
2021/04/17 12:50:57;;;;;;;15.88;7.00;;;11.30;75.40;;;;;;4848321;29;20059;-65
2021/04/17 12:53:25;;;;;;;13.77;7.05;;;11.20;74.50;;;;;;4845571;29;20057;-65
2021/04/17 12:55:53;;;;;;;11.70;6.22;;;11.10;74.50;;;;;;4850540;29;20045;-65